sensor_id;sensor_type;location;lat;lon;timestamp;P1;durP1;ratioP1;P2;durP2;ratioP2
23129;SDS011;11734;51.046;13.778;2023-03-13T00:00:50;6.67;;;3.30;;
23129;SDS011;11734;51.046;13.778;2023-03-13T00:03:18;9.47;;;3.70;;
23129;SDS011;11734;51.046;13.778;2023-03-13T00:05:45;7.47;;;2.97;;
23129;SDS011;11734;51.046;13.778;2023-03-13T00:08:12;7.27;;;3.13;;
23129;SDS011;11734;51.046;13.778;2023-03-13T00:10:40;8.77;;;3.47;;
23129;SDS011;11734;51.046;13.778;2023-03-13T00:13:07;12.47;;;3.63;;
23129;SDS011;11734;51.046;13.778;2023-03-13T00:15:35;8.57;;;3.20;;
23129;SDS011;11734;51.046;13.778;2023-03-13T00:18:02;9.67;;;3.03;;
23129;SDS011;11734;51.046;13.778;2023-03-13T00:20:30;9.73;;;3.10;;
23129;SDS011;11734;51.046;13.778;2023-03-13T00:22:57;7.83;;;2.70;;
23129;SDS011;11734;51.046;13.778;2023-03-13T00:25:24;10.90;;;3.20;;
23129;SDS011;11734;51.046;13.778;2023-03-13T00:27:51;8.60;;;3.33;;
23129;SDS011;11734;51.046;13.778;2023-03-13T00:30:19;8.53;;;3.20;;
23129;SDS011;11734;51.046;13.778;2023-03-13T00:32:46;10.37;;;3.40;;
23129;SDS011;11734;51.046;13.778;2023-03-13T00:35:14;10.37;;;3.30;;
23129;SDS011;11734;51.046;13.778;2023-03-13T00:37:42;7.40;;;2.83;;
23129;SDS011;11734;51.046;13.778;2023-03-13T00:40:10;8.83;;;3.40;;
23129;SDS011;11734;51.046;13.778;2023-03-13T00:42:37;7.93;;;3.40;;
23129;SDS011;11734;51.046;13.778;2023-03-13T00:45:04;10.90;;;3.70;;
23129;SDS011;11734;51.046;13.778;2023-03-13T00:47:32;8.73;;;3.10;;
23129;SDS011;11734;51.046;13.778;2023-03-13T00:50:00;8.90;;;3.00;;
23129;SDS011;11734;51.046;13.778;2023-03-13T00:52:28;10.37;;;3.40;;
23129;SDS011;11734;51.046;13.778;2023-03-13T00:54:55;7.93;;;2.90;;
23129;SDS011;11734;51.046;13.778;2023-03-13T00:57:23;9.77;;;3.50;;
23129;SDS011;11734;51.046;13.778;2023-03-13T00:59:50;8.97;;;3.30;;
23129;SDS011;11734;51.046;13.778;2023-03-13T01:02:18;10.77;;;3.10;;
23129;SDS011;11734;51.046;13.778;2023-03-13T01:04:45;6.27;;;2.83;;
23129;SDS011;11734;51.046;13.778;2023-03-13T01:07:12;8.27;;;2.97;;
23129;SDS011;11734;51.046;13.778;2023-03-13T01:09:40;7.47;;;3.60;;
23129;SDS011;11734;51.046;13.778;2023-03-13T01:12:07;12.50;;;3.43;;
23129;SDS011;11734;51.046;13.778;2023-03-13T01:14:35;7.77;;;3.07;;
23129;SDS011;11734;51.046;13.778;2023-03-13T01:17:02;7.17;;;3.20;;
23129;SDS011;11734;51.046;13.778;2023-03-13T01:19:30;6.43;;;3.07;;
23129;SDS011;11734;51.046;13.778;2023-03-13T01:21:57;8.23;;;3.20;;
23129;SDS011;11734;51.046;13.778;2023-03-13T01:24:24;11.10;;;3.23;;
23129;SDS011;11734;51.046;13.778;2023-03-13T01:26:51;6.57;;;2.73;;
23129;SDS011;11734;51.046;13.778;2023-03-13T01:29:19;8.23;;;2.87;;
23129;SDS011;11734;51.046;13.778;2023-03-13T01:31:46;9.97;;;3.40;;
23129;SDS011;11734;51.046;13.778;2023-03-13T01:34:13;9.80;;;2.87;;
23129;SDS011;11734;51.046;13.778;2023-03-13T01:36:41;10.57;;;3.33;;
23129;SDS011;11734;51.046;13.778;2023-03-13T01:39:09;6.90;;;2.90;;
23129;SDS011;11734;51.046;13.778;2023-03-13T01:41:37;7.97;;;3.10;;
23129;SDS011;11734;51.046;13.778;2023-03-13T01:44:05;5.70;;;2.50;;
23129;SDS011;11734;51.046;13.778;2023-03-13T01:46:35;10.10;;;2.93;;
23129;SDS011;11734;51.046;13.778;2023-03-13T01:49:13;8.17;;;3.07;;
23129;SDS011;11734;51.046;13.778;2023-03-13T01:52:09;8.30;;;3.43;;
23129;SDS011;11734;51.046;13.778;2023-03-13T01:54:45;7.63;;;2.90;;
23129;SDS011;11734;51.046;13.778;2023-03-13T01:57:25;6.93;;;2.60;;
23129;SDS011;11734;51.046;13.778;2023-03-13T02:00:12;5.40;;;2.47;;
23129;SDS011;11734;51.046;13.778;2023-03-13T02:02:43;7.60;;;2.67;;
23129;SDS011;11734;51.046;13.778;2023-03-13T02:05:12;11.17;;;3.17;;
23129;SDS011;11734;51.046;13.778;2023-03-13T02:07:46;10.30;;;2.83;;
23129;SDS011;11734;51.046;13.778;2023-03-13T02:10:14;10.50;;;2.80;;
23129;SDS011;11734;51.046;13.778;2023-03-13T02:12:43;7.93;;;3.17;;
23129;SDS011;11734;51.046;13.778;2023-03-13T02:15:12;7.03;;;2.63;;
23129;SDS011;11734;51.046;13.778;2023-03-13T02:17:40;10.73;;;3.17;;
23129;SDS011;11734;51.046;13.778;2023-03-13T02:20:09;9.23;;;3.07;;
23129;SDS011;11734;51.046;13.778;2023-03-13T02:30:25;9.40;;;3.27;;
23129;SDS011;11734;51.046;13.778;2023-03-13T02:32:53;10.70;;;3.20;;
23129;SDS011;11734;51.046;13.778;2023-03-13T02:35:21;10.77;;;3.00;;
23129;SDS011;11734;51.046;13.778;2023-03-13T02:37:50;8.23;;;2.83;;
23129;SDS011;11734;51.046;13.778;2023-03-13T02:40:20;9.47;;;3.33;;
23129;SDS011;11734;51.046;13.778;2023-03-13T02:42:49;9.07;;;2.90;;
23129;SDS011;11734;51.046;13.778;2023-03-13T02:45:17;11.50;;;3.33;;
23129;SDS011;11734;51.046;13.778;2023-03-13T02:47:44;7.50;;;2.90;;
23129;SDS011;11734;51.046;13.778;2023-03-13T02:50:12;13.80;;;3.33;;
23129;SDS011;11734;51.046;13.778;2023-03-13T02:52:41;9.90;;;3.20;;
23129;SDS011;11734;51.046;13.778;2023-03-13T02:55:21;11.03;;;3.37;;
23129;SDS011;11734;51.046;13.778;2023-03-13T02:57:50;9.43;;;3.00;;
23129;SDS011;11734;51.046;13.778;2023-03-13T03:00:18;9.13;;;3.00;;
23129;SDS011;11734;51.046;13.778;2023-03-13T03:02:46;8.60;;;2.60;;
23129;SDS011;11734;51.046;13.778;2023-03-13T03:05:13;7.40;;;2.60;;
23129;SDS011;11734;51.046;13.778;2023-03-13T03:07:40;8.23;;;2.60;;
23129;SDS011;11734;51.046;13.778;2023-03-13T03:10:08;6.70;;;2.70;;
23129;SDS011;11734;51.046;13.778;2023-03-13T03:12:35;10.40;;;2.83;;
23129;SDS011;11734;51.046;13.778;2023-03-13T03:15:02;11.30;;;2.97;;
23129;SDS011;11734;51.046;13.778;2023-03-13T03:17:32;10.60;;;3.23;;
23129;SDS011;11734;51.046;13.778;2023-03-13T03:19:59;9.20;;;3.70;;
23129;SDS011;11734;51.046;13.778;2023-03-13T03:22:26;6.97;;;2.90;;
23129;SDS011;11734;51.046;13.778;2023-03-13T03:24:53;10.27;;;3.10;;
23129;SDS011;11734;51.046;13.778;2023-03-13T03:27:22;12.30;;;3.17;;
23129;SDS011;11734;51.046;13.778;2023-03-13T03:29:52;7.73;;;3.00;;
23129;SDS011;11734;51.046;13.778;2023-03-13T03:32:20;6.47;;;2.63;;
23129;SDS011;11734;51.046;13.778;2023-03-13T03:34:47;7.90;;;2.83;;
23129;SDS011;11734;51.046;13.778;2023-03-13T03:37:14;10.27;;;2.77;;
23129;SDS011;11734;51.046;13.778;2023-03-13T03:39:42;9.27;;;2.87;;
23129;SDS011;11734;51.046;13.778;2023-03-13T03:42:09;8.07;;;2.57;;
23129;SDS011;11734;51.046;13.778;2023-03-13T03:44:37;7.50;;;2.60;;
23129;SDS011;11734;51.046;13.778;2023-03-13T03:47:04;7.27;;;2.60;;
23129;SDS011;11734;51.046;13.778;2023-03-13T03:49:36;7.63;;;2.90;;
23129;SDS011;11734;51.046;13.778;2023-03-13T03:52:03;10.80;;;2.90;;
23129;SDS011;11734;51.046;13.778;2023-03-13T03:54:35;9.13;;;2.83;;
23129;SDS011;11734;51.046;13.778;2023-03-13T03:57:02;8.50;;;2.90;;
23129;SDS011;11734;51.046;13.778;2023-03-13T03:59:30;7.23;;;2.73;;
23129;SDS011;11734;51.046;13.778;2023-03-13T04:02:16;9.00;;;2.70;;
23129;SDS011;11734;51.046;13.778;2023-03-13T04:04:44;10.43;;;3.13;;
23129;SDS011;11734;51.046;13.778;2023-03-13T04:07:22;10.07;;;2.90;;
23129;SDS011;11734;51.046;13.778;2023-03-13T04:09:49;7.50;;;2.60;;
23129;SDS011;11734;51.046;13.778;2023-03-13T04:12:25;9.73;;;3.47;;
23129;SDS011;11734;51.046;13.778;2023-03-13T04:14:54;7.30;;;2.13;;
23129;SDS011;11734;51.046;13.778;2023-03-13T04:17:21;9.93;;;2.60;;
23129;SDS011;11734;51.046;13.778;2023-03-13T04:19:49;9.40;;;3.17;;
23129;SDS011;11734;51.046;13.778;2023-03-13T04:22:16;11.50;;;3.23;;
23129;SDS011;11734;51.046;13.778;2023-03-13T04:24:48;7.13;;;2.63;;
23129;SDS011;11734;51.046;13.778;2023-03-13T04:27:17;7.40;;;2.93;;
23129;SDS011;11734;51.046;13.778;2023-03-13T04:29:46;9.00;;;2.80;;
23129;SDS011;11734;51.046;13.778;2023-03-13T04:32:40;9.27;;;2.93;;
23129;SDS011;11734;51.046;13.778;2023-03-13T04:35:16;11.03;;;2.80;;
23129;SDS011;11734;51.046;13.778;2023-03-13T04:38:19;11.63;;;2.87;;
23129;SDS011;11734;51.046;13.778;2023-03-13T04:40:54;8.90;;;2.73;;
23129;SDS011;11734;51.046;13.778;2023-03-13T04:43:44;9.50;;;2.73;;
23129;SDS011;11734;51.046;13.778;2023-03-13T04:46:30;9.40;;;2.80;;
23129;SDS011;11734;51.046;13.778;2023-03-13T04:49:13;9.87;;;2.80;;
23129;SDS011;11734;51.046;13.778;2023-03-13T04:52:03;6.77;;;2.63;;
23129;SDS011;11734;51.046;13.778;2023-03-13T04:54:49;11.93;;;3.00;;
23129;SDS011;11734;51.046;13.778;2023-03-13T04:57:34;10.63;;;2.90;;
23129;SDS011;11734;51.046;13.778;2023-03-13T05:00:23;6.10;;;2.50;;
23129;SDS011;11734;51.046;13.778;2023-03-13T05:03:11;8.33;;;3.20;;
23129;SDS011;11734;51.046;13.778;2023-03-13T05:05:49;11.30;;;3.13;;
23129;SDS011;11734;51.046;13.778;2023-03-13T05:08:40;7.27;;;2.90;;
23129;SDS011;11734;51.046;13.778;2023-03-13T05:11:09;10.53;;;3.37;;
23129;SDS011;11734;51.046;13.778;2023-03-13T05:14:00;8.63;;;2.83;;
23129;SDS011;11734;51.046;13.778;2023-03-13T05:16:49;9.30;;;2.80;;
23129;SDS011;11734;51.046;13.778;2023-03-13T05:19:47;9.30;;;2.67;;
23129;SDS011;11734;51.046;13.778;2023-03-13T05:22:53;5.77;;;2.67;;
23129;SDS011;11734;51.046;13.778;2023-03-13T05:25:55;8.60;;;3.27;;
23129;SDS011;11734;51.046;13.778;2023-03-13T05:28:49;8.77;;;3.20;;
23129;SDS011;11734;51.046;13.778;2023-03-13T05:31:29;9.87;;;2.70;;
23129;SDS011;11734;51.046;13.778;2023-03-13T05:34:08;10.97;;;2.97;;
23129;SDS011;11734;51.046;13.778;2023-03-13T05:37:03;7.60;;;2.90;;
23129;SDS011;11734;51.046;13.778;2023-03-13T05:39:53;6.93;;;2.90;;
23129;SDS011;11734;51.046;13.778;2023-03-13T05:42:38;9.13;;;3.47;;
23129;SDS011;11734;51.046;13.778;2023-03-13T05:45:26;8.23;;;3.33;;
23129;SDS011;11734;51.046;13.778;2023-03-13T05:48:04;10.50;;;3.67;;
23129;SDS011;11734;51.046;13.778;2023-03-13T05:50:55;10.00;;;3.43;;
23129;SDS011;11734;51.046;13.778;2023-03-13T05:53:51;10.33;;;3.77;;
23129;SDS011;11734;51.046;13.778;2023-03-13T05:56:59;9.70;;;3.30;;
23129;SDS011;11734;51.046;13.778;2023-03-13T05:59:56;8.07;;;3.20;;
23129;SDS011;11734;51.046;13.778;2023-03-13T06:02:48;9.13;;;3.60;;
23129;SDS011;11734;51.046;13.778;2023-03-13T06:05:22;13.90;;;4.10;;
23129;SDS011;11734;51.046;13.778;2023-03-13T06:07:51;10.87;;;3.80;;
23129;SDS011;11734;51.046;13.778;2023-03-13T06:10:19;10.53;;;4.13;;
23129;SDS011;11734;51.046;13.778;2023-03-13T06:12:53;9.83;;;4.00;;
23129;SDS011;11734;51.046;13.778;2023-03-13T06:15:23;10.87;;;4.37;;
23129;SDS011;11734;51.046;13.778;2023-03-13T06:17:54;9.60;;;4.40;;
23129;SDS011;11734;51.046;13.778;2023-03-13T06:20:21;9.20;;;4.30;;
23129;SDS011;11734;51.046;13.778;2023-03-13T06:22:49;10.67;;;4.40;;
23129;SDS011;11734;51.046;13.778;2023-03-13T06:25:16;12.17;;;4.60;;
23129;SDS011;11734;51.046;13.778;2023-03-13T06:27:43;9.73;;;5.37;;
23129;SDS011;11734;51.046;13.778;2023-03-13T06:30:11;10.00;;;5.27;;
23129;SDS011;11734;51.046;13.778;2023-03-13T06:32:38;14.27;;;5.97;;
23129;SDS011;11734;51.046;13.778;2023-03-13T06:35:06;9.70;;;5.73;;
23129;SDS011;11734;51.046;13.778;2023-03-13T06:37:33;11.43;;;5.90;;
23129;SDS011;11734;51.046;13.778;2023-03-13T06:40:01;9.17;;;5.80;;
23129;SDS011;11734;51.046;13.778;2023-03-13T06:42:29;10.40;;;6.23;;
23129;SDS011;11734;51.046;13.778;2023-03-13T06:44:56;11.37;;;6.20;;
23129;SDS011;11734;51.046;13.778;2023-03-13T06:47:24;13.97;;;6.73;;
23129;SDS011;11734;51.046;13.778;2023-03-13T06:49:51;14.03;;;7.30;;
23129;SDS011;11734;51.046;13.778;2023-03-13T06:52:18;9.97;;;6.40;;
23129;SDS011;11734;51.046;13.778;2023-03-13T06:54:48;10.57;;;6.00;;
23129;SDS011;11734;51.046;13.778;2023-03-13T06:57:16;8.37;;;5.83;;
23129;SDS011;11734;51.046;13.778;2023-03-13T06:59:43;10.37;;;5.73;;
23129;SDS011;11734;51.046;13.778;2023-03-13T07:02:10;9.17;;;5.70;;
23129;SDS011;11734;51.046;13.778;2023-03-13T07:04:38;11.50;;;5.53;;
23129;SDS011;11734;51.046;13.778;2023-03-13T07:07:05;9.73;;;5.60;;
23129;SDS011;11734;51.046;13.778;2023-03-13T07:09:32;9.00;;;5.23;;
23129;SDS011;11734;51.046;13.778;2023-03-13T07:12:00;8.73;;;5.63;;
23129;SDS011;11734;51.046;13.778;2023-03-13T07:14:28;10.23;;;6.20;;
23129;SDS011;11734;51.046;13.778;2023-03-13T07:16:57;11.47;;;5.80;;
23129;SDS011;11734;51.046;13.778;2023-03-13T07:19:25;10.03;;;5.80;;
23129;SDS011;11734;51.046;13.778;2023-03-13T07:21:52;8.67;;;5.67;;
23129;SDS011;11734;51.046;13.778;2023-03-13T07:24:20;7.10;;;5.20;;
23129;SDS011;11734;51.046;13.778;2023-03-13T07:26:47;9.73;;;5.80;;
23129;SDS011;11734;51.046;13.778;2023-03-13T07:29:32;10.40;;;5.60;;
23129;SDS011;11734;51.046;13.778;2023-03-13T07:31:59;7.20;;;5.20;;
23129;SDS011;11734;51.046;13.778;2023-03-13T07:34:27;9.30;;;5.40;;
23129;SDS011;11734;51.046;13.778;2023-03-13T07:36:54;6.20;;;4.70;;
23129;SDS011;11734;51.046;13.778;2023-03-13T07:39:21;7.43;;;5.43;;
23129;SDS011;11734;51.046;13.778;2023-03-13T07:41:49;9.00;;;5.27;;
23129;SDS011;11734;51.046;13.778;2023-03-13T07:44:16;7.80;;;4.20;;
23129;SDS011;11734;51.046;13.778;2023-03-13T07:46:43;7.77;;;4.50;;
23129;SDS011;11734;51.046;13.778;2023-03-13T07:49:13;6.57;;;3.00;;
23129;SDS011;11734;51.046;13.778;2023-03-13T07:51:40;4.80;;;3.00;;
23129;SDS011;11734;51.046;13.778;2023-03-13T07:54:10;7.97;;;3.27;;
23129;SDS011;11734;51.046;13.778;2023-03-13T07:56:37;4.13;;;3.00;;
23129;SDS011;11734;51.046;13.778;2023-03-13T07:59:05;5.77;;;3.03;;
23129;SDS011;11734;51.046;13.778;2023-03-13T08:01:32;7.03;;;3.30;;
23129;SDS011;11734;51.046;13.778;2023-03-13T08:03:59;4.97;;;3.23;;
23129;SDS011;11734;51.046;13.778;2023-03-13T08:06:28;7.47;;;4.03;;
23129;SDS011;11734;51.046;13.778;2023-03-13T08:08:59;7.33;;;4.83;;
23129;SDS011;11734;51.046;13.778;2023-03-13T08:11:27;9.67;;;4.67;;
23129;SDS011;11734;51.046;13.778;2023-03-13T08:13:55;7.13;;;4.70;;
23129;SDS011;11734;51.046;13.778;2023-03-13T08:16:27;7.30;;;5.00;;
23129;SDS011;11734;51.046;13.778;2023-03-13T08:18:55;9.87;;;5.83;;
23129;SDS011;11734;51.046;13.778;2023-03-13T08:21:32;9.30;;;5.50;;
23129;SDS011;11734;51.046;13.778;2023-03-13T08:24:01;9.30;;;5.90;;
23129;SDS011;11734;51.046;13.778;2023-03-13T08:26:31;7.40;;;5.43;;
23129;SDS011;11734;51.046;13.778;2023-03-13T08:29:00;9.43;;;6.17;;
23129;SDS011;11734;51.046;13.778;2023-03-13T08:31:32;9.67;;;5.97;;
23129;SDS011;11734;51.046;13.778;2023-03-13T08:34:02;8.77;;;5.77;;
23129;SDS011;11734;51.046;13.778;2023-03-13T08:36:36;8.93;;;6.07;;
23129;SDS011;11734;51.046;13.778;2023-03-13T08:39:04;8.87;;;6.03;;
23129;SDS011;11734;51.046;13.778;2023-03-13T08:41:32;9.17;;;6.33;;
23129;SDS011;11734;51.046;13.778;2023-03-13T08:44:02;7.63;;;5.73;;
23129;SDS011;11734;51.046;13.778;2023-03-13T08:46:30;6.43;;;5.00;;
23129;SDS011;11734;51.046;13.778;2023-03-13T08:48:57;7.80;;;5.27;;
23129;SDS011;11734;51.046;13.778;2023-03-13T08:51:25;7.03;;;5.13;;
23129;SDS011;11734;51.046;13.778;2023-03-13T08:53:54;7.30;;;5.03;;
23129;SDS011;11734;51.046;13.778;2023-03-13T08:56:22;8.10;;;6.00;;
23129;SDS011;11734;51.046;13.778;2023-03-13T08:58:50;8.23;;;4.87;;
23129;SDS011;11734;51.046;13.778;2023-03-13T09:01:18;6.23;;;4.87;;
23129;SDS011;11734;51.046;13.778;2023-03-13T09:03:46;9.10;;;4.90;;
23129;SDS011;11734;51.046;13.778;2023-03-13T09:06:14;6.50;;;4.73;;
23129;SDS011;11734;51.046;13.778;2023-03-13T09:08:41;5.17;;;4.67;;
23129;SDS011;11734;51.046;13.778;2023-03-13T09:11:10;7.23;;;4.70;;
23129;SDS011;11734;51.046;13.778;2023-03-13T09:13:39;8.00;;;4.27;;
23129;SDS011;11734;51.046;13.778;2023-03-13T09:16:10;4.30;;;2.87;;
23129;SDS011;11734;51.046;13.778;2023-03-13T09:18:38;5.37;;;3.20;;
23129;SDS011;11734;51.046;13.778;2023-03-13T09:21:07;3.80;;;2.20;;
23129;SDS011;11734;51.046;13.778;2023-03-13T09:23:35;3.87;;;2.40;;
23129;SDS011;11734;51.046;13.778;2023-03-13T09:26:02;3.03;;;2.50;;
23129;SDS011;11734;51.046;13.778;2023-03-13T09:28:29;3.60;;;2.10;;
23129;SDS011;11734;51.046;13.778;2023-03-13T09:31:04;4.10;;;2.20;;
23129;SDS011;11734;51.046;13.778;2023-03-13T09:33:32;3.63;;;2.17;;
23129;SDS011;11734;51.046;13.778;2023-03-13T09:35:59;2.33;;;2.13;;
23129;SDS011;11734;51.046;13.778;2023-03-13T09:38:27;4.53;;;2.00;;
23129;SDS011;11734;51.046;13.778;2023-03-13T09:40:54;4.60;;;2.30;;
23129;SDS011;11734;51.046;13.778;2023-03-13T09:43:36;2.77;;;2.07;;
23129;SDS011;11734;51.046;13.778;2023-03-13T09:46:07;3.40;;;2.10;;
23129;SDS011;11734;51.046;13.778;2023-03-13T09:48:39;2.57;;;2.10;;
23129;SDS011;11734;51.046;13.778;2023-03-13T09:53:53;2.63;;;1.77;;
23129;SDS011;11734;51.046;13.778;2023-03-13T09:56:23;2.07;;;1.87;;
23129;SDS011;11734;51.046;13.778;2023-03-13T09:58:54;2.57;;;2.00;;
23129;SDS011;11734;51.046;13.778;2023-03-13T10:01:25;2.30;;;2.10;;
23129;SDS011;11734;51.046;13.778;2023-03-13T10:04:20;3.43;;;1.90;;
23129;SDS011;11734;51.046;13.778;2023-03-13T10:06:45;4.07;;;1.90;;
23129;SDS011;11734;51.046;13.778;2023-03-13T10:09:18;2.13;;;1.80;;
23129;SDS011;11734;51.046;13.778;2023-03-13T10:12:12;2.53;;;2.17;;
23129;SDS011;11734;51.046;13.778;2023-03-13T10:20:00;2.60;;;1.90;;
23129;SDS011;11734;51.046;13.778;2023-03-13T10:22:34;3.80;;;1.83;;
23129;SDS011;11734;51.046;13.778;2023-03-13T10:25:08;1.70;;;1.60;;
23129;SDS011;11734;51.046;13.778;2023-03-13T10:27:41;2.17;;;1.80;;
23129;SDS011;11734;51.046;13.778;2023-03-13T10:30:18;2.77;;;1.90;;
23129;SDS011;11734;51.046;13.778;2023-03-13T10:32:46;2.60;;;1.73;;
23129;SDS011;11734;51.046;13.778;2023-03-13T10:35:24;2.90;;;1.57;;
23129;SDS011;11734;51.046;13.778;2023-03-13T10:38:00;1.97;;;1.47;;
23129;SDS011;11734;51.046;13.778;2023-03-13T10:40:28;2.40;;;1.40;;
23129;SDS011;11734;51.046;13.778;2023-03-13T10:42:59;2.37;;;1.50;;
23129;SDS011;11734;51.046;13.778;2023-03-13T10:45:26;1.53;;;1.40;;
23129;SDS011;11734;51.046;13.778;2023-03-13T10:48:01;1.83;;;1.40;;
23129;SDS011;11734;51.046;13.778;2023-03-13T10:50:31;1.37;;;1.27;;
23129;SDS011;11734;51.046;13.778;2023-03-13T10:53:07;1.63;;;1.30;;
23129;SDS011;11734;51.046;13.778;2023-03-13T10:55:38;1.17;;;1.07;;
23129;SDS011;11734;51.046;13.778;2023-03-13T10:58:16;1.40;;;1.10;;
23129;SDS011;11734;51.046;13.778;2023-03-13T11:00:45;1.20;;;1.10;;
23129;SDS011;11734;51.046;13.778;2023-03-13T11:03:18;1.53;;;1.40;;
23129;SDS011;11734;51.046;13.778;2023-03-13T11:05:56;1.40;;;1.30;;
23129;SDS011;11734;51.046;13.778;2023-03-13T11:08:25;1.37;;;1.20;;
23129;SDS011;11734;51.046;13.778;2023-03-13T11:11:03;1.20;;;1.10;;
23129;SDS011;11734;51.046;13.778;2023-03-13T11:13:35;1.40;;;1.17;;
23129;SDS011;11734;51.046;13.778;2023-03-13T11:16:23;1.33;;;1.20;;
23129;SDS011;11734;51.046;13.778;2023-03-13T11:18:54;1.70;;;1.40;;
23129;SDS011;11734;51.046;13.778;2023-03-13T11:21:26;1.57;;;1.47;;
23129;SDS011;11734;51.046;13.778;2023-03-13T11:23:57;1.53;;;1.43;;
23129;SDS011;11734;51.046;13.778;2023-03-13T11:26:31;1.70;;;1.33;;
23129;SDS011;11734;51.046;13.778;2023-03-13T11:31:38;1.60;;;1.50;;
23129;SDS011;11734;51.046;13.778;2023-03-13T11:36:42;1.77;;;1.50;;
23129;SDS011;11734;51.046;13.778;2023-03-13T11:44:23;1.97;;;1.30;;
23129;SDS011;11734;51.046;13.778;2023-03-13T11:46:57;1.60;;;1.50;;
23129;SDS011;11734;51.046;13.778;2023-03-13T11:49:32;1.73;;;1.50;;
23129;SDS011;11734;51.046;13.778;2023-03-13T11:52:09;1.10;;;1.00;;
23129;SDS011;11734;51.046;13.778;2023-03-13T11:57:43;1.23;;;1.10;;
23129;SDS011;11734;51.046;13.778;2023-03-13T12:02:45;1.57;;;1.30;;
23129;SDS011;11734;51.046;13.778;2023-03-13T12:05:17;1.40;;;1.30;;
23129;SDS011;11734;51.046;13.778;2023-03-13T12:08:01;1.60;;;1.50;;
23129;SDS011;11734;51.046;13.778;2023-03-13T12:10:32;1.27;;;1.10;;
23129;SDS011;11734;51.046;13.778;2023-03-13T12:13:06;3.93;;;1.33;;
23129;SDS011;11734;51.046;13.778;2023-03-13T12:15:37;3.17;;;1.23;;
23129;SDS011;11734;51.046;13.778;2023-03-13T12:18:20;1.27;;;1.10;;
23129;SDS011;11734;51.046;13.778;2023-03-13T12:26:14;1.10;;;1.10;;
23129;SDS011;11734;51.046;13.778;2023-03-13T12:34:22;1.50;;;1.40;;
23129;SDS011;11734;51.046;13.778;2023-03-13T12:39:28;1.40;;;1.30;;
23129;SDS011;11734;51.046;13.778;2023-03-13T12:42:02;2.83;;;1.40;;
23129;SDS011;11734;51.046;13.778;2023-03-13T12:44:33;1.33;;;1.23;;
23129;SDS011;11734;51.046;13.778;2023-03-13T12:54:45;1.23;;;1.13;;
23129;SDS011;11734;51.046;13.778;2023-03-13T13:00:02;1.90;;;1.20;;
23129;SDS011;11734;51.046;13.778;2023-03-13T13:02:31;1.30;;;1.20;;
23129;SDS011;11734;51.046;13.778;2023-03-13T13:04:59;1.40;;;1.30;;
23129;SDS011;11734;51.046;13.778;2023-03-13T13:07:28;1.40;;;1.30;;
23129;SDS011;11734;51.046;13.778;2023-03-13T13:12:39;1.30;;;1.20;;
23129;SDS011;11734;51.046;13.778;2023-03-13T13:15:13;1.90;;;1.20;;
23129;SDS011;11734;51.046;13.778;2023-03-13T13:17:55;1.83;;;1.27;;
23129;SDS011;11734;51.046;13.778;2023-03-13T13:20:38;1.67;;;1.00;;
23129;SDS011;11734;51.046;13.778;2023-03-13T13:28:56;1.20;;;1.10;;
23129;SDS011;11734;51.046;13.778;2023-03-13T13:36:54;1.17;;;1.07;;
23129;SDS011;11734;51.046;13.778;2023-03-13T13:41:54;1.17;;;1.07;;
23129;SDS011;11734;51.046;13.778;2023-03-13T13:44:23;2.47;;;1.30;;
23129;SDS011;11734;51.046;13.778;2023-03-13T13:46:51;1.70;;;1.10;;
23129;SDS011;11734;51.046;13.778;2023-03-13T13:49:19;1.10;;;1.00;;
23129;SDS011;11734;51.046;13.778;2023-03-13T13:54:33;1.40;;;1.30;;
23129;SDS011;11734;51.046;13.778;2023-03-13T13:57:19;1.40;;;1.30;;
23129;SDS011;11734;51.046;13.778;2023-03-13T13:59:50;1.33;;;0.87;;
23129;SDS011;11734;51.046;13.778;2023-03-13T14:02:23;1.30;;;1.20;;
23129;SDS011;11734;51.046;13.778;2023-03-13T14:04:51;1.00;;;1.00;;
23129;SDS011;11734;51.046;13.778;2023-03-13T14:07:24;1.17;;;1.07;;
23129;SDS011;11734;51.046;13.778;2023-03-13T14:10:03;2.00;;;1.20;;
23129;SDS011;11734;51.046;13.778;2023-03-13T14:12:33;1.13;;;1.10;;
23129;SDS011;11734;51.046;13.778;2023-03-13T14:18:26;1.30;;;1.20;;
23129;SDS011;11734;51.046;13.778;2023-03-13T14:23:16;2.67;;;1.40;;
23129;SDS011;11734;51.046;13.778;2023-03-13T14:25:54;1.90;;;1.17;;
23129;SDS011;11734;51.046;13.778;2023-03-13T14:28:25;1.23;;;1.13;;
23129;SDS011;11734;51.046;13.778;2023-03-13T14:30:54;1.10;;;1.10;;
23129;SDS011;11734;51.046;13.778;2023-03-13T14:33:23;1.47;;;1.30;;
23129;SDS011;11734;51.046;13.778;2023-03-13T14:35:52;1.40;;;1.30;;
23129;SDS011;11734;51.046;13.778;2023-03-13T14:38:24;1.40;;;1.30;;
23129;SDS011;11734;51.046;13.778;2023-03-13T14:40:52;1.30;;;1.20;;
23129;SDS011;11734;51.046;13.778;2023-03-13T14:43:24;1.37;;;1.13;;
23129;SDS011;11734;51.046;13.778;2023-03-13T14:45:52;1.87;;;1.03;;
23129;SDS011;11734;51.046;13.778;2023-03-13T14:48:26;1.90;;;1.40;;
23129;SDS011;11734;51.046;13.778;2023-03-13T14:51:08;1.73;;;1.20;;
23129;SDS011;11734;51.046;13.778;2023-03-13T14:53:52;1.30;;;1.20;;
23129;SDS011;11734;51.046;13.778;2023-03-13T14:56:20;1.37;;;1.10;;
23129;SDS011;11734;51.046;13.778;2023-03-13T14:58:47;1.53;;;1.40;;
23129;SDS011;11734;51.046;13.778;2023-03-13T15:01:25;2.17;;;1.27;;
23129;SDS011;11734;51.046;13.778;2023-03-13T15:03:53;1.70;;;1.30;;
23129;SDS011;11734;51.046;13.778;2023-03-13T15:06:22;1.67;;;1.33;;
23129;SDS011;11734;51.046;13.778;2023-03-13T15:09:40;1.73;;;1.20;;
23129;SDS011;11734;51.046;13.778;2023-03-13T15:11:38;1.33;;;1.23;;
23129;SDS011;11734;51.046;13.778;2023-03-13T15:14:41;1.83;;;1.50;;
23129;SDS011;11734;51.046;13.778;2023-03-13T15:17:01;1.67;;;1.40;;
23129;SDS011;11734;51.046;13.778;2023-03-13T15:19:30;1.80;;;1.40;;
23129;SDS011;11734;51.046;13.778;2023-03-13T15:21:57;1.77;;;1.50;;
23129;SDS011;11734;51.046;13.778;2023-03-13T15:24:24;1.23;;;1.13;;
23129;SDS011;11734;51.046;13.778;2023-03-13T15:26:52;1.87;;;1.43;;
23129;SDS011;11734;51.046;13.778;2023-03-13T15:29:19;2.27;;;1.47;;
23129;SDS011;11734;51.046;13.778;2023-03-13T15:31:46;1.70;;;1.60;;
23129;SDS011;11734;51.046;13.778;2023-03-13T15:34:14;1.43;;;1.33;;
23129;SDS011;11734;51.046;13.778;2023-03-13T15:36:41;3.70;;;2.23;;
23129;SDS011;11734;51.046;13.778;2023-03-13T15:39:12;3.43;;;2.23;;
23129;SDS011;11734;51.046;13.778;2023-03-13T15:41:41;1.90;;;1.70;;
23129;SDS011;11734;51.046;13.778;2023-03-13T15:44:08;2.97;;;1.87;;
23129;SDS011;11734;51.046;13.778;2023-03-13T15:46:36;1.60;;;1.30;;
23129;SDS011;11734;51.046;13.778;2023-03-13T15:49:03;2.17;;;1.80;;
23129;SDS011;11734;51.046;13.778;2023-03-13T15:51:36;1.83;;;1.67;;
23129;SDS011;11734;51.046;13.778;2023-03-13T15:54:03;1.37;;;1.27;;
23129;SDS011;11734;51.046;13.778;2023-03-13T15:56:33;1.47;;;1.30;;
23129;SDS011;11734;51.046;13.778;2023-03-13T15:59:00;1.43;;;1.33;;
23129;SDS011;11734;51.046;13.778;2023-03-13T16:01:28;1.83;;;1.40;;
23129;SDS011;11734;51.046;13.778;2023-03-13T16:03:55;1.60;;;1.33;;
23129;SDS011;11734;51.046;13.778;2023-03-13T16:06:23;1.73;;;1.40;;
23129;SDS011;11734;51.046;13.778;2023-03-13T16:08:57;2.03;;;1.27;;
23129;SDS011;11734;51.046;13.778;2023-03-13T16:11:25;1.53;;;1.30;;
23129;SDS011;11734;51.046;13.778;2023-03-13T16:13:53;2.50;;;1.40;;
23129;SDS011;11734;51.046;13.778;2023-03-13T16:16:22;1.43;;;1.33;;
23129;SDS011;11734;51.046;13.778;2023-03-13T16:18:50;1.33;;;1.17;;
23129;SDS011;11734;51.046;13.778;2023-03-13T16:21:20;2.07;;;1.50;;